Alvadore, OR

6:35 AM PST on December 20, 2014 (GMT -0800)
Mahlon Sweet | Change Station
CLOSE
Current Station
Airport
Location: Eugene,
Elevation: 374 ft
Nearby Weather Stations
Active Advisory: Areal Flood Watch

Elev 374 ft 44.12 °N, 123.21 °W | Updated 41 minutes ago

Rain
Rain
49 °F
Feels Like 49 °F
N
18
Wind Variable Wind from South

Today
High -- | Low -- °F
--% Chance of Precip.
Yesterday
High -- | Low -- °F
Precip. -- in
7:44 AM 4:36 PM
Waning Crescent, 3% visible
Pressure 29.80 in
Visibility 10.0 miles
Clouds Few 2000 ft
Mostly Cloudy 4500 ft
Overcast 6000 ft
Dew Point 45 °F
Humidity 86%
Rainfall 0.27 in
Snow Depth Not available.
UV 0 out of 12
Pollen .50 out of 12
Air Quality Not available.
Flu Activity Not available.
METAR KEUG 201354Z 17016KT 10SM -RA FEW020 BKN045 OVC060 09/07 A2979 RMK AO2 SLP089 P0002 T00940072

More Conditions Fewer Conditions

Pressure 29.80 in
Visibility 10.0 miles
Clouds Few 2000 ft
Mostly Cloudy 4500 ft
Overcast 6000 ft
Dew Point 45 °F
Humidity 86%
Rainfall 0.27 in
Snow Depth Not available.
UV 0 out of 12
Pollen .50 out of 12
Air Quality Not available.
Flu Activity Not available.
METAR KEUG 201354Z 17016KT 10SM -RA FEW020 BKN045 OVC060 09/07 A2979 RMK AO2 SLP089 P0002 T00940072

More Conditions Fewer Conditions

10-Day Weather Forecast

Almanac

Astronomy

Dec. 20, 2014 Rise Set
Actual Time
Civil Twilight
Nautical Twilight
Astronomical Twilight
Moon
Length of Visible Light
Length of Day
Tomorrow will be .
, % of the Moon is Illuminated

Today's Extremes

State Highs State Lows

Community

WunderPhotos

Upload Photos

1,779,174 photos uploaded!

WunderBlogs® & News

Nearby

Air Quality

  Air Quality AQ Index Pollutant
Not available.

Snow Depth

Station Depth Elevation

Earthquake Activity

City Distance Mag. Time & Date
Minimum magnitude displayed is 2.5.

Coastal Water Temperatures

Place Temperature

Nearby Weather Stations